Time;durP1;ratioP1;P1;durP2;ratioP2;P2;SDS_P1;SDS_P2;PMS_P1;PMS_P2;Temp;Humidity;BMP_temperature;BMP_pressure;BME280_temperature;BME280_humidity;BME280_pressure;Samples;Min_cycle;Max_cycle;Signal;HPM_P1;HPM_P2
2021/01/26 00:00:55;;;;;;;27.80;16.75;;;0.80;99.90;;;;;;5092033;28;20024;-74
2021/01/26 00:03:21;;;;;;;29.70;17.83;;;0.80;99.90;;;;;;5086861;28;20047;-74
2021/01/26 00:05:53;;;;;;;25.90;15.68;;;0.80;99.90;;;;;;5081256;28;20040;-74
2021/01/26 00:08:19;;;;;;;29.35;17.10;;;0.70;99.90;;;;;;5090443;28;20024;-74
2021/01/26 00:10:45;;;;;;;30.02;19.05;;;0.70;99.90;;;;;;5090343;28;20054;-74
2021/01/26 00:13:13;;;;;;;31.90;20.30;;;0.70;99.90;;;;;;5092943;28;20520;-74
2021/01/26 00:15:39;;;;;;;32.03;19.95;;;0.70;99.90;;;;;;5077364;28;20047;-74
2021/01/26 00:18:09;;;;;;;30.35;18.48;;;0.70;99.90;;;;;;5088291;28;20043;-74
2021/01/26 00:20:35;;;;;;;30.23;18.33;;;0.70;99.90;;;;;;5091017;28;20036;-74
2021/01/26 00:23:00;;;;;;;33.53;19.98;;;0.70;99.90;;;;;;5096694;28;20052;-74
2021/01/26 00:25:31;;;;;;;33.55;20.80;;;0.70;99.90;;;;;;5094810;28;20043;-74
2021/01/26 00:27:56;;;;;;;31.77;19.90;;;0.70;99.90;;;;;;5092502;28;20056;-74
2021/01/26 00:30:26;;;;;;;31.75;19.20;;;0.70;99.90;;;;;;5091085;28;20125;-74
2021/01/26 00:32:58;;;;;;;30.67;18.80;;;0.70;99.90;;;;;;5074983;28;20088;-74
2021/01/26 00:35:30;;;;;;;32.67;19.83;;;0.70;99.90;;;;;;5091317;28;20084;-74
2021/01/26 00:38:03;;;;;;;30.67;19.15;;;0.70;99.90;;;;;;5092637;28;20114;-74
2021/01/26 00:40:29;;;;;;;32.30;19.42;;;0.70;99.90;;;;;;5092199;28;20042;-74
2021/01/26 00:43:00;;;;;;;32.53;19.75;;;0.70;99.90;;;;;;5088221;28;20405;-74
2021/01/26 00:45:29;;;;;;;31.77;18.92;;;0.80;99.90;;;;;;5088089;28;20726;-73
2021/01/26 00:47:57;;;;;;;30.35;18.55;;;0.70;99.90;;;;;;5091114;28;20459;-74
2021/01/26 00:50:27;;;;;;;30.17;18.75;;;0.80;99.90;;;;;;5089587;28;20024;-75
2021/01/26 00:52:56;;;;;;;27.17;16.58;;;0.80;99.90;;;;;;5071427;28;20027;-74
2021/01/26 00:55:27;;;;;;;26.80;16.55;;;0.80;99.90;;;;;;5091844;28;20019;-73
2021/01/26 00:57:56;;;;;;;27.77;17.75;;;0.80;99.90;;;;;;5081977;28;20070;-74
2021/01/26 01:00:28;;;;;;;25.13;14.75;;;0.90;99.90;;;;;;5077607;28;20035;-73
2021/01/26 01:02:56;;;;;;;25.23;15.77;;;0.90;99.90;;;;;;5077660;28;20040;-73
2021/01/26 01:05:21;;;;;;;22.10;13.82;;;0.90;99.90;;;;;;5084497;28;20406;-74
2021/01/26 01:07:50;;;;;;;21.83;14.02;;;0.90;99.90;;;;;;5076077;28;20024;-73
2021/01/26 01:10:18;;;;;;;25.40;15.27;;;1.00;99.90;;;;;;5065654;28;20484;-73
2021/01/26 01:12:46;;;;;;;23.73;14.75;;;1.00;99.90;;;;;;5092172;28;20175;-73
2021/01/26 01:15:15;;;;;;;25.05;14.98;;;1.00;99.90;;;;;;5091868;28;20025;-73
2021/01/26 01:17:40;;;;;;;23.95;14.40;;;1.00;99.90;;;;;;5076168;28;20060;-73
2021/01/26 01:20:09;;;;;;;25.50;15.55;;;1.00;99.90;;;;;;5076251;28;20502;-75
2021/01/26 01:22:35;;;;;;;27.05;15.43;;;1.00;99.90;;;;;;5076137;28;20039;-74
2021/01/26 01:25:00;;;;;;;22.65;14.23;;;0.90;99.90;;;;;;5076060;28;20028;-74
2021/01/26 01:27:26;;;;;;;23.33;14.85;;;0.90;99.90;;;;;;5076565;28;20046;-74
2021/01/26 01:29:55;;;;;;;25.52;14.25;;;1.00;99.90;;;;;;5075592;28;20028;-73
2021/01/26 01:32:20;;;;;;;24.77;14.95;;;0.90;99.90;;;;;;5076505;28;20546;-74
2021/01/26 01:34:46;;;;;;;25.77;15.07;;;1.00;99.90;;;;;;5076893;28;20020;-73
2021/01/26 01:37:14;;;;;;;22.98;14.10;;;0.90;99.90;;;;;;5092287;28;20134;-73
2021/01/26 01:39:42;;;;;;;23.42;14.25;;;0.90;99.90;;;;;;5091073;28;20030;-73
2021/01/26 01:42:11;;;;;;;22.52;14.40;;;0.90;99.90;;;;;;5090066;28;20047;-74
2021/01/26 01:44:41;;;;;;;22.63;14.07;;;0.90;99.90;;;;;;5093148;28;20101;-74
2021/01/26 01:47:11;;;;;;;27.77;15.30;;;0.90;99.90;;;;;;5080154;28;20099;-74
2021/01/26 01:49:41;;;;;;;28.83;16.60;;;0.90;99.90;;;;;;5072223;28;20028;-75
2021/01/26 01:52:09;;;;;;;24.35;14.68;;;0.90;99.90;;;;;;5061671;28;20093;-75
2021/01/26 01:54:39;;;;;;;27.55;15.98;;;0.80;99.90;;;;;;5074908;28;20029;-75
2021/01/26 01:57:15;;;;;;;27.48;16.13;;;0.80;99.90;;;;;;5067068;28;20342;-75
2021/01/26 01:59:47;;;;;;;27.85;16.83;;;0.80;99.90;;;;;;5074956;28;20087;-72
2021/01/26 02:02:18;;;;;;;25.73;15.98;;;0.80;99.90;;;;;;5073356;28;20020;-73
2021/01/26 02:04:47;;;;;;;26.88;15.50;;;0.80;99.90;;;;;;5078677;28;20060;-73
2021/01/26 02:07:17;;;;;;;28.13;15.93;;;0.80;99.90;;;;;;5090754;28;20024;-73
2021/01/26 02:09:48;;;;;;;29.45;16.58;;;0.80;99.90;;;;;;5072842;28;20042;-74
2021/01/26 02:12:15;;;;;;;25.02;14.68;;;0.90;99.90;;;;;;5087195;28;20053;-73
2021/01/26 02:14:52;;;;;;;29.85;16.52;;;0.90;99.90;;;;;;5079817;28;20055;-73
2021/01/26 02:17:22;;;;;;;29.92;17.77;;;0.90;99.90;;;;;;5058580;28;20052;-73
2021/01/26 02:20:13;;;;;;;27.58;15.50;;;0.90;99.90;;;;;;5074400;28;20030;-73
2021/01/26 02:22:59;;;;;;;26.35;14.48;;;0.90;99.90;;;;;;5075834;28;20497;-73
2021/01/26 02:25:42;;;;;;;31.77;16.17;;;0.90;99.90;;;;;;5075739;28;20533;-73
2021/01/26 02:28:41;;;;;;;27.75;14.70;;;0.90;99.90;;;;;;5090314;28;20101;-73
2021/01/26 02:31:16;;;;;;;27.48;14.65;;;0.90;99.90;;;;;;5096031;28;20035;-73
2021/01/26 02:33:45;;;;;;;28.10;14.60;;;0.90;99.90;;;;;;5086428;28;20114;-74
2021/01/26 02:36:18;;;;;;;25.67;14.88;;;0.90;99.90;;;;;;5086658;28;20036;-73
2021/01/26 02:38:47;;;;;;;25.90;14.77;;;0.90;99.90;;;;;;5075459;28;20439;-73
2021/01/26 02:41:53;;;;;;;29.05;15.38;;;0.90;99.90;;;;;;5075402;28;20602;-74
2021/01/26 02:44:19;;;;;;;27.02;14.65;;;0.90;99.90;;;;;;5090730;27;20036;-73
2021/01/26 02:46:50;;;;;;;27.38;15.60;;;0.90;99.90;;;;;;5076897;28;20109;-73
2021/01/26 02:49:22;;;;;;;29.67;15.77;;;0.90;99.90;;;;;;5073097;28;20446;-73
2021/01/26 02:52:03;;;;;;;27.23;14.60;;;0.90;99.90;;;;;;5069483;28;20035;-73
2021/01/26 02:54:40;;;;;;;27.33;14.65;;;0.90;99.90;;;;;;5074116;28;20363;-73
2021/01/26 02:57:24;;;;;;;27.73;14.75;;;0.80;99.90;;;;;;5061590;28;20085;-73
2021/01/26 03:00:10;;;;;;;27.30;13.77;;;0.80;99.90;;;;;;5089777;28;20031;-74
2021/01/26 03:02:57;;;;;;;28.42;14.90;;;0.80;99.90;;;;;;5073368;28;20419;-73
2021/01/26 03:05:30;;;;;;;28.67;15.30;;;0.80;99.90;;;;;;5073067;28;20052;-74
2021/01/26 03:08:29;;;;;;;30.77;16.35;;;0.80;99.90;;;;;;5062479;28;20035;-73
2021/01/26 03:11:05;;;;;;;27.45;15.05;;;0.70;99.90;;;;;;5052307;28;20044;-73
2021/01/26 03:13:34;;;;;;;25.05;13.98;;;0.70;99.90;;;;;;5060908;28;20603;-74
2021/01/26 03:16:03;;;;;;;24.30;12.82;;;0.70;99.90;;;;;;5066898;28;20427;-73
2021/01/26 03:18:40;;;;;;;26.42;13.35;;;0.70;99.90;;;;;;5075452;28;20027;-74
2021/01/26 03:21:06;;;;;;;28.63;14.70;;;0.70;99.90;;;;;;5058106;28;20048;-73
2021/01/26 03:23:45;;;;;;;29.23;15.38;;;0.70;99.90;;;;;;5074989;28;20035;-73
2021/01/26 03:26:18;;;;;;;24.92;13.55;;;0.70;99.90;;;;;;5076906;28;20176;-74
2021/01/26 03:28:43;;;;;;;24.38;12.95;;;0.70;99.90;;;;;;5074278;28;20028;-73
2021/01/26 03:31:13;;;;;;;28.88;13.55;;;0.80;99.90;;;;;;5073523;28;20036;-74
2021/01/26 03:33:46;;;;;;;29.42;14.70;;;0.80;99.90;;;;;;5072927;28;20563;-74
2021/01/26 03:36:12;;;;;;;29.90;14.55;;;0.80;99.90;;;;;;5074494;28;20045;-73
2021/01/26 03:38:38;;;;;;;31.27;14.95;;;0.90;99.90;;;;;;5068641;28;20035;-74
2021/01/26 03:41:05;;;;;;;24.45;12.63;;;0.90;99.90;;;;;;5072205;28;20020;-73
2021/01/26 03:43:33;;;;;;;28.48;13.65;;;0.90;99.90;;;;;;5072475;28;20443;-75
2021/01/26 03:46:26;;;;;;;24.83;13.00;;;0.90;99.90;;;;;;5084697;28;20042;-73
2021/01/26 03:49:27;;;;;;;18.52;10.73;;;0.90;99.90;;;;;;5092158;28;20077;-74
2021/01/26 03:52:06;;;;;;;15.40;8.38;;;1.00;99.90;;;;;;5048634;28;20116;-75
2021/01/26 03:54:33;;;;;;;24.70;11.98;;;1.10;99.90;;;;;;5080210;28;20068;-74
2021/01/26 03:57:10;;;;;;;22.83;11.90;;;1.20;99.90;;;;;;5087009;28;20016;-74
2021/01/26 03:59:49;;;;;;;21.38;10.40;;;1.20;99.90;;;;;;5087888;28;20740;-74
2021/01/26 04:02:39;;;;;;;15.88;8.93;;;1.30;99.90;;;;;;5074955;28;20040;-74
2021/01/26 04:05:18;;;;;;;18.15;9.70;;;1.30;99.90;;;;;;5069818;28;20378;-75
2021/01/26 04:07:50;;;;;;;23.58;12.25;;;1.40;99.90;;;;;;5053065;28;20020;-74
2021/01/26 04:10:32;;;;;;;22.35;11.07;;;1.50;99.90;;;;;;5087564;28;20465;-75
2021/01/26 04:13:02;;;;;;;16.58;9.32;;;1.50;99.90;;;;;;5056038;28;20557;-74
2021/01/26 04:15:57;;;;;;;21.40;11.48;;;1.50;99.90;;;;;;5068827;28;20474;-74
2021/01/26 04:18:29;;;;;;;15.88;8.70;;;1.60;99.90;;;;;;5074395;28;20025;-74
2021/01/26 04:20:54;;;;;;;14.60;7.82;;;1.60;99.90;;;;;;5076271;28;20034;-74
2021/01/26 04:23:25;;;;;;;17.40;9.65;;;1.50;99.90;;;;;;5064304;28;20028;-74
2021/01/26 04:25:51;;;;;;;19.25;9.52;;;1.50;99.90;;;;;;5054180;28;20588;-73
2021/01/26 04:28:33;;;;;;;19.17;10.48;;;1.50;99.90;;;;;;5065074;28;20048;-74
2021/01/26 04:30:59;;;;;;;18.27;10.52;;;1.60;99.90;;;;;;5073624;28;20368;-74
2021/01/26 04:33:25;;;;;;;20.15;11.30;;;1.60;99.90;;;;;;5083559;28;20052;-74
2021/01/26 04:35:50;;;;;;;17.70;11.35;;;1.60;99.90;;;;;;5074076;28;20055;-74
2021/01/26 04:38:20;;;;;;;21.52;11.95;;;1.60;99.90;;;;;;5072763;28;20441;-74
2021/01/26 04:40:46;;;;;;;20.63;11.02;;;1.60;99.90;;;;;;5071781;28;20032;-74
2021/01/26 04:43:36;;;;;;;22.13;11.43;;;1.60;99.90;;;;;;5072728;28;20073;-74
2021/01/26 04:46:10;;;;;;;19.33;10.73;;;1.50;99.90;;;;;;5070985;28;20224;-75
2021/01/26 04:49:04;;;;;;;19.45;10.52;;;1.60;99.90;;;;;;5084429;28;20028;-74
2021/01/26 04:52:00;;;;;;;23.17;11.05;;;1.50;99.90;;;;;;5077000;28;20066;-74
2021/01/26 04:54:34;;;;;;;19.10;11.07;;;1.50;99.90;;;;;;5086072;28;20035;-74
2021/01/26 04:57:33;;;;;;;22.92;11.00;;;1.50;99.90;;;;;;5079037;28;20028;-74
2021/01/26 05:00:18;;;;;;;16.42;9.32;;;1.40;99.90;;;;;;5073704;28;20098;-74
2021/01/26 05:03:11;;;;;;;15.88;8.57;;;1.50;99.90;;;;;;5070026;28;20043;-74
2021/01/26 05:05:39;;;;;;;18.70;9.48;;;1.40;99.90;;;;;;5076059;28;20031;-74
2021/01/26 05:08:10;;;;;;;14.32;8.57;;;1.40;99.90;;;;;;5050886;28;20069;-74
2021/01/26 05:10:46;;;;;;;19.02;8.70;;;1.40;99.90;;;;;;5072703;28;20035;-74
2021/01/26 05:13:25;;;;;;;16.10;8.20;;;1.50;99.90;;;;;;5070972;28;20020;-74
2021/01/26 05:15:57;;;;;;;13.88;7.90;;;1.50;99.90;;;;;;5089514;28;20030;-74
2021/01/26 05:18:41;;;;;;;13.55;7.88;;;1.50;99.90;;;;;;5061598;28;20039;-74
2021/01/26 05:21:24;;;;;;;13.43;7.50;;;1.60;99.90;;;;;;5083192;28;20166;-74
2021/01/26 05:23:54;;;;;;;14.32;8.13;;;1.70;99.90;;;;;;5074503;28;20041;-74
2021/01/26 05:26:21;;;;;;;12.10;6.93;;;1.60;99.90;;;;;;5064959;28;20039;-74
2021/01/26 05:28:47;;;;;;;12.55;7.35;;;1.70;99.90;;;;;;5074027;28;20036;-74
2021/01/26 05:31:26;;;;;;;12.40;6.70;;;1.70;99.90;;;;;;5059846;28;20047;-74
2021/01/26 05:33:51;;;;;;;11.43;6.80;;;1.80;99.90;;;;;;5075554;28;20043;-74
2021/01/26 05:36:19;;;;;;;12.70;7.18;;;1.80;99.90;;;;;;5075385;28;20045;-74
2021/01/26 05:38:47;;;;;;;10.95;6.32;;;1.90;99.90;;;;;;5070712;28;20499;-73
2021/01/26 05:41:16;;;;;;;10.48;6.07;;;1.90;99.90;;;;;;5076975;28;20052;-74
2021/01/26 05:43:46;;;;;;;14.00;6.70;;;2.00;99.90;;;;;;5053526;28;20029;-74
2021/01/26 05:46:37;;;;;;;11.30;6.55;;;2.00;99.90;;;;;;5070947;28;20028;-74
2021/01/26 05:49:03;;;;;;;13.50;6.88;;;2.00;99.90;;;;;;5084473;28;20033;-74
2021/01/26 05:51:31;;;;;;;9.23;5.80;;;2.00;99.90;;;;;;5091030;28;20092;-73
2021/01/26 05:53:58;;;;;;;11.60;6.05;;;2.10;99.90;;;;;;5089300;28;20107;-73
2021/01/26 05:56:27;;;;;;;10.07;5.85;;;2.10;99.90;;;;;;5073513;28;20126;-73
2021/01/26 05:58:57;;;;;;;10.32;5.93;;;2.20;99.90;;;;;;5091955;28;20580;-73
2021/01/26 06:01:26;;;;;;;8.45;5.50;;;2.20;99.90;;;;;;5083641;28;20039;-73
2021/01/26 06:04:30;;;;;;;11.45;5.80;;;2.20;99.90;;;;;;5077415;28;20032;-73
2021/01/26 06:06:59;;;;;;;12.10;6.40;;;2.20;99.90;;;;;;5008511;28;20037;-73
2021/01/26 06:09:28;;;;;;;11.73;6.65;;;2.20;99.90;;;;;;5060965;28;20477;-73
2021/01/26 06:12:17;;;;;;;11.25;5.78;;;2.20;99.90;;;;;;5076339;28;20422;-73
2021/01/26 06:14:45;;;;;;;10.60;6.45;;;2.20;99.90;;;;;;5076774;28;20025;-73
2021/01/26 06:17:24;;;;;;;9.50;5.95;;;2.30;99.90;;;;;;5085564;28;20097;-73
2021/01/26 06:20:22;;;;;;;9.93;5.68;;;2.40;99.90;;;;;;5075579;28;20771;-73
2021/01/26 06:22:49;;;;;;;10.63;5.88;;;2.40;99.90;;;;;;5076982;28;20086;-73
2021/01/26 06:25:26;;;;;;;10.90;5.90;;;2.40;99.90;;;;;;5075572;28;20125;-73
2021/01/26 06:28:20;;;;;;;11.52;6.30;;;2.30;99.90;;;;;;5062866;28;20039;-73
2021/01/26 06:31:15;;;;;;;12.27;6.00;;;2.30;99.90;;;;;;5081165;28;20047;-73
2021/01/26 06:34:04;;;;;;;11.60;6.75;;;2.30;99.90;;;;;;5075424;28;20667;-73
2021/01/26 06:36:46;;;;;;;12.15;6.13;;;2.30;99.90;;;;;;5076104;28;20117;-73
2021/01/26 06:39:22;;;;;;;11.25;6.68;;;2.20;99.90;;;;;;5058923;28;21032;-73
2021/01/26 06:42:04;;;;;;;10.82;6.47;;;2.20;99.90;;;;;;5089440;28;20040;-73
2021/01/26 06:44:41;;;;;;;10.98;6.72;;;2.20;99.90;;;;;;5082586;28;20189;-73
2021/01/26 06:47:31;;;;;;;13.57;6.93;;;2.20;99.90;;;;;;5076867;28;20127;-73
2021/01/26 06:50:13;;;;;;;11.25;5.65;;;2.20;99.90;;;;;;5075509;28;20540;-72
2021/01/26 06:52:53;;;;;;;11.43;5.75;;;2.30;99.90;;;;;;5074009;28;21515;-72
2021/01/26 06:55:32;;;;;;;10.40;5.97;;;2.30;99.90;;;;;;5074772;28;20047;-72
2021/01/26 06:58:23;;;;;;;11.15;6.63;;;2.30;99.90;;;;;;5073999;28;20021;-73
2021/01/26 07:01:08;;;;;;;13.02;7.35;;;2.40;99.90;;;;;;5084562;28;20020;-72
2021/01/26 07:03:58;;;;;;;10.18;6.40;;;2.40;99.90;;;;;;5087773;28;20032;-73
2021/01/26 07:07:01;;;;;;;12.68;7.18;;;2.40;99.90;;;;;;5078095;28;20035;-70
2021/01/26 07:09:30;;;;;;;9.05;5.47;;;2.40;99.90;;;;;;5074518;28;20028;-71
2021/01/26 07:12:22;;;;;;;9.85;5.80;;;2.30;99.90;;;;;;5075545;28;20035;-73
2021/01/26 07:15:16;;;;;;;9.95;4.80;;;2.40;99.90;;;;;;5083889;28;20025;-73
2021/01/26 07:18:22;;;;;;;9.93;5.50;;;2.40;99.90;;;;;;5091148;28;20109;-73
2021/01/26 07:21:20;;;;;;;11.50;5.20;;;2.40;99.90;;;;;;5027226;28;20049;-73
2021/01/26 07:24:10;;;;;;;9.85;5.18;;;2.40;99.90;;;;;;5000492;28;20047;-72
2021/01/26 07:26:56;;;;;;;9.50;5.18;;;2.50;99.90;;;;;;5030296;28;20493;-72
2021/01/26 07:29:28;;;;;;;10.20;5.22;;;2.40;99.90;;;;;;5017620;28;20033;-73
2021/01/26 07:32:02;;;;;;;8.88;5.38;;;2.40;99.90;;;;;;5033844;28;20056;-72
2021/01/26 07:34:34;;;;;;;8.07;4.97;;;2.40;99.90;;;;;;5031211;28;20056;-72
2021/01/26 07:37:19;;;;;;;8.23;4.88;;;2.40;99.90;;;;;;4993627;28;20046;-72
2021/01/26 07:40:07;;;;;;;9.55;4.78;;;2.40;99.90;;;;;;5009798;28;20479;-73
2021/01/26 07:42:40;;;;;;;6.47;4.43;;;2.50;99.90;;;;;;5015250;28;20021;-72
2021/01/26 07:45:12;;;;;;;9.10;4.60;;;2.50;99.90;;;;;;5011816;28;20033;-72
2021/01/26 07:47:43;;;;;;;7.60;4.88;;;2.60;99.90;;;;;;5015311;28;20160;-72
2021/01/26 07:50:19;;;;;;;9.35;4.75;;;2.50;99.90;;;;;;5031866;28;20042;-73
2021/01/26 07:52:50;;;;;;;9.60;4.80;;;2.50;99.90;;;;;;5076673;28;20041;-72
2021/01/26 07:55:39;;;;;;;5.70;3.25;;;2.50;99.90;;;;;;5073214;28;20028;-72
2021/01/26 07:58:12;;;;;;;8.38;4.75;;;2.60;99.90;;;;;;5064366;28;20038;-72
2021/01/26 08:00:50;;;;;;;8.38;4.13;;;2.60;99.90;;;;;;5071240;28;20024;-72
2021/01/26 08:03:23;;;;;;;8.32;4.65;;;2.60;99.90;;;;;;5088729;28;20035;-72
2021/01/26 08:05:52;;;;;;;8.68;4.57;;;2.70;99.90;;;;;;5085611;28;20081;-72
2021/01/26 08:08:22;;;;;;;7.75;4.43;;;2.60;99.90;;;;;;5085813;28;20024;-72
2021/01/26 08:11:04;;;;;;;7.85;4.75;;;2.60;99.90;;;;;;5085903;28;20021;-73
2021/01/26 08:13:35;;;;;;;10.18;4.63;;;2.60;99.90;;;;;;5088050;28;20040;-72
2021/01/26 08:16:19;;;;;;;9.20;4.93;;;2.60;99.90;;;;;;5088264;28;20028;-72
2021/01/26 08:18:45;;;;;;;7.82;4.68;;;2.70;99.90;;;;;;5079414;28;20016;-72
2021/01/26 08:21:58;;;;;;;11.32;4.68;;;2.70;99.90;;;;;;5072744;28;20032;-72
2021/01/26 08:24:38;;;;;;;10.57;5.15;;;2.70;99.90;;;;;;5080708;28;20036;-71
2021/01/26 08:27:25;;;;;;;9.40;5.15;;;2.70;99.90;;;;;;5071952;28;20031;-72
2021/01/26 08:29:52;;;;;;;12.65;5.70;;;2.60;99.90;;;;;;5086242;28;20016;-71
2021/01/26 08:32:27;;;;;;;10.35;5.90;;;2.70;99.90;;;;;;5090384;28;20110;-73
2021/01/26 08:35:08;;;;;;;12.25;5.50;;;2.60;99.90;;;;;;5089741;28;20468;-72
2021/01/26 08:37:43;;;;;;;10.67;4.43;;;2.60;99.90;;;;;;5089374;28;20040;-72
2021/01/26 08:40:41;;;;;;;7.53;4.60;;;2.60;99.90;;;;;;5090372;28;20032;-72
2021/01/26 08:43:07;;;;;;;10.65;5.45;;;2.60;99.90;;;;;;5095155;28;20024;-72
2021/01/26 08:45:33;;;;;;;8.52;4.68;;;2.60;99.90;;;;;;5076628;28;20055;-71
2021/01/26 08:48:02;;;;;;;9.68;5.07;;;2.60;99.90;;;;;;5094553;28;20456;-71
2021/01/26 08:50:38;;;;;;;9.25;4.70;;;2.70;99.90;;;;;;5092817;28;20062;-71
2021/01/26 08:53:31;;;;;;;9.35;4.18;;;2.70;99.90;;;;;;5095719;28;20028;-71
2021/01/26 08:56:14;;;;;;;7.05;3.85;;;2.70;99.90;;;;;;5065040;28;20042;-71
2021/01/26 08:58:45;;;;;;;8.07;3.70;;;2.70;99.90;;;;;;5070578;28;20150;-71
2021/01/26 09:01:25;;;;;;;8.65;4.20;;;2.80;99.90;;;;;;5090239;28;20043;-72
2021/01/26 09:03:55;;;;;;;7.97;3.80;;;2.70;99.90;;;;;;5090889;28;20385;-71
2021/01/26 09:06:26;;;;;;;8.52;4.10;;;2.70;99.90;;;;;;5072765;28;20035;-71
2021/01/26 09:08:56;;;;;;;9.43;4.13;;;2.80;99.90;;;;;;5090377;28;20024;-72
2021/01/26 09:11:31;;;;;;;9.25;3.67;;;2.80;99.90;;;;;;5088822;28;20392;-72
2021/01/26 09:14:28;;;;;;;9.20;4.20;;;2.70;99.90;;;;;;5058505;28;20020;-71
2021/01/26 09:17:01;;;;;;;8.57;3.85;;;2.80;99.90;;;;;;5092207;28;20047;-72
2021/01/26 09:19:38;;;;;;;7.82;3.63;;;2.70;99.90;;;;;;5093006;28;20031;-71
2021/01/26 09:22:05;;;;;;;7.95;4.43;;;2.80;99.90;;;;;;5069316;28;20031;-72
2021/01/26 09:24:31;;;;;;;10.45;3.90;;;2.80;99.90;;;;;;5077259;28;20024;-72
2021/01/26 09:26:57;;;;;;;6.63;3.92;;;2.80;99.90;;;;;;5078694;28;20055;-71
2021/01/26 09:29:26;;;;;;;8.25;3.53;;;2.80;99.90;;;;;;5095219;28;20028;-71
2021/01/26 09:31:55;;;;;;;8.23;3.97;;;2.80;99.90;;;;;;5076235;28;20051;-72
2021/01/26 09:34:28;;;;;;;6.97;3.38;;;2.80;99.90;;;;;;5095862;28;20027;-72
2021/01/26 09:37:23;;;;;;;6.43;3.63;;;2.80;99.90;;;;;;5090963;28;20098;-71
2021/01/26 09:39:50;;;;;;;8.20;4.00;;;2.90;99.90;;;;;;5078383;28;20024;-72
2021/01/26 09:42:21;;;;;;;9.00;4.15;;;2.80;99.90;;;;;;5085606;28;20036;-71
2021/01/26 09:45:09;;;;;;;7.22;3.58;;;2.80;99.90;;;;;;5077473;28;20044;-72
2021/01/26 09:47:37;;;;;;;6.60;3.45;;;2.80;99.90;;;;;;5088096;28;20024;-72
2021/01/26 09:50:12;;;;;;;7.10;3.33;;;2.90;99.90;;;;;;5087460;28;20078;-72
2021/01/26 09:52:41;;;;;;;8.10;3.40;;;2.90;99.90;;;;;;5079813;28;20035;-71
2021/01/26 09:55:12;;;;;;;7.25;3.40;;;2.90;99.90;;;;;;5072321;28;20077;-72
2021/01/26 09:57:40;;;;;;;8.25;3.50;;;2.90;99.90;;;;;;5093362;28;20036;-72
2021/01/26 10:00:14;;;;;;;5.50;3.25;;;2.90;99.90;;;;;;5058951;28;20024;-71
2021/01/26 10:02:41;;;;;;;6.07;3.15;;;2.90;99.90;;;;;;5056474;28;20073;-72
2021/01/26 10:05:13;;;;;;;5.78;3.00;;;2.90;99.90;;;;;;5072937;28;20028;-71
2021/01/26 10:07:39;;;;;;;7.03;3.70;;;3.00;99.90;;;;;;5079986;28;20039;-71
2021/01/26 10:10:22;;;;;;;8.30;3.10;;;3.00;99.90;;;;;;5075785;28;20575;-72
2021/01/26 10:12:50;;;;;;;5.60;3.10;;;3.00;99.90;;;;;;5091692;28;20039;-72
2021/01/26 10:15:23;;;;;;;6.88;3.20;;;3.10;99.90;;;;;;5090898;28;20070;-71
2021/01/26 10:17:51;;;;;;;7.90;3.15;;;3.10;99.90;;;;;;5077896;28;20697;-71
2021/01/26 10:20:57;;;;;;;7.68;3.35;;;3.10;99.90;;;;;;5075361;28;20420;-71
2021/01/26 10:23:33;;;;;;;6.95;3.35;;;3.10;99.90;;;;;;5087184;28;20021;-72
2021/01/26 10:26:26;;;;;;;7.30;3.00;;;3.20;99.90;;;;;;5071312;28;20027;-72
2021/01/26 10:29:14;;;;;;;6.20;2.90;;;3.20;99.90;;;;;;5089341;28;20042;-71
2021/01/26 10:31:43;;;;;;;7.60;3.10;;;3.20;99.90;;;;;;5078448;28;20111;-72
2021/01/26 10:34:18;;;;;;;4.88;2.63;;;3.10;99.90;;;;;;5087241;28;20048;-71
2021/01/26 10:36:44;;;;;;;5.10;2.63;;;3.20;99.90;;;;;;5061642;28;20047;-71
2021/01/26 10:39:26;;;;;;;7.00;3.08;;;3.20;99.90;;;;;;5073533;28;20050;-71
2021/01/26 10:42:19;;;;;;;4.20;2.08;;;3.30;99.90;;;;;;5070358;28;20051;-72
2021/01/26 10:44:45;;;;;;;;;;;3.30;99.90;;;;;;5087615;28;20460;-72
2021/01/26 10:47:16;;;;;;;7.53;3.20;;;3.30;99.90;;;;;;5089262;28;19916;-71
2021/01/26 10:49:53;;;;;;;6.10;2.80;;;3.20;99.90;;;;;;5078446;28;20038;-72
2021/01/26 10:52:40;;;;;;;5.45;2.70;;;3.30;99.90;;;;;;5080282;28;20027;-71
2021/01/26 10:55:12;;;;;;;5.22;2.40;;;3.30;99.90;;;;;;5085263;28;20012;-71
2021/01/26 10:57:42;;;;;;;6.55;2.50;;;3.30;99.90;;;;;;5088083;28;20084;-71
2021/01/26 11:00:09;;;;;;;6.97;2.70;;;3.30;99.90;;;;;;5090015;28;20028;-71
2021/01/26 11:02:37;;;;;;;6.20;2.60;;;3.30;99.90;;;;;;5075510;28;20046;-70
2021/01/26 11:05:04;;;;;;;5.90;2.70;;;3.40;99.90;;;;;;5092435;28;20039;-71
2021/01/26 11:07:33;;;;;;;5.32;2.53;;;3.40;99.90;;;;;;5074263;28;20366;-72
2021/01/26 11:09:58;;;;;;;5.95;2.80;;;3.40;99.90;;;;;;5076976;28;20787;-69
2021/01/26 11:12:24;;;;;;;4.80;2.35;;;3.30;99.90;;;;;;5089157;28;20032;-72
2021/01/26 11:14:54;;;;;;;5.32;2.67;;;3.30;99.90;;;;;;5091314;28;20028;-71
2021/01/26 11:17:25;;;;;;;4.63;2.30;;;3.30;99.90;;;;;;5089614;28;20080;-71
2021/01/26 11:19:54;;;;;;;4.40;2.40;;;3.40;99.90;;;;;;5088344;28;20656;-72
2021/01/26 11:22:19;;;;;;;6.15;2.72;;;3.40;99.90;;;;;;4736253;28;10000492;-73
2021/01/26 11:24:45;;;;;;;7.25;2.90;;;3.40;99.90;;;;;;5084144;28;20357;-72
2021/01/26 11:27:11;;;;;;;5.40;2.80;;;3.40;99.90;;;;;;5089017;28;20036;-72
2021/01/26 11:29:39;;;;;;;7.10;2.90;;;3.40;99.90;;;;;;5088973;28;20043;-72
2021/01/26 11:32:07;;;;;;;5.93;2.50;;;3.40;99.90;;;;;;5058666;28;20038;-72
2021/01/26 11:34:33;;;;;;;5.65;2.72;;;3.40;99.90;;;;;;5084916;28;20063;-71
2021/01/26 11:37:01;;;;;;;5.78;2.80;;;3.40;99.90;;;;;;5089571;28;20044;-72
2021/01/26 11:39:27;;;;;;;7.22;3.00;;;3.40;99.90;;;;;;5087480;28;20051;-72
2021/01/26 11:41:52;;;;;;;6.07;3.03;;;3.50;99.90;;;;;;5084304;28;20021;-72
2021/01/26 11:44:18;;;;;;;6.05;3.33;;;3.40;99.90;;;;;;5071256;28;20581;-72
2021/01/26 11:46:43;;;;;;;6.70;3.15;;;3.40;99.90;;;;;;5087555;28;20389;-72
2021/01/26 11:49:12;;;;;;;6.22;2.58;;;3.40;99.90;;;;;;5087573;28;20031;-72
2021/01/26 11:51:40;;;;;;;5.70;2.75;;;3.30;99.90;;;;;;5086566;28;20023;-72
2021/01/26 11:54:05;;;;;;;6.57;2.47;;;3.30;99.90;;;;;;5083885;28;20023;-71
2021/01/26 11:56:31;;;;;;;5.68;2.58;;;3.30;99.90;;;;;;5087283;28;20527;-73
2021/01/26 11:58:59;;;;;;;7.20;2.40;;;3.40;99.90;;;;;;4738425;28;10000359;-73
2021/01/26 12:01:25;;;;;;;6.20;2.65;;;3.40;99.90;;;;;;5069791;28;20023;-72
2021/01/26 12:03:53;;;;;;;7.03;2.80;;;3.40;99.90;;;;;;5088040;28;20024;-72
2021/01/26 12:06:22;;;;;;;6.53;3.05;;;3.40;99.90;;;;;;5081417;28;20049;-72
2021/01/26 12:08:51;;;;;;;8.48;2.80;;;3.40;99.90;;;;;;5086754;28;20536;-71
2021/01/26 12:11:19;;;;;;;6.45;2.90;;;3.30;99.90;;;;;;5075226;28;20691;-71
2021/01/26 12:13:45;;;;;;;4.75;2.70;;;3.30;99.90;;;;;;5083514;28;20036;-72
2021/01/26 12:16:11;;;;;;;6.25;3.03;;;3.20;99.90;;;;;;5085980;28;20488;-71
2021/01/26 12:18:39;;;;;;;5.45;2.90;;;3.20;99.90;;;;;;5088442;28;20067;-71
2021/01/26 12:21:06;;;;;;;5.82;3.10;;;3.20;99.90;;;;;;5089457;28;20020;-74
2021/01/26 12:23:31;;;;;;;10.18;6.22;;;3.30;99.90;;;;;;5080842;28;20591;-71
2021/01/26 12:26:07;;;;;;;5.68;3.05;;;3.30;99.90;;;;;;5092391;28;20110;-73
2021/01/26 12:28:33;;;;;;;8.15;3.13;;;3.40;99.90;;;;;;5092887;28;20033;-72
2021/01/26 12:30:58;;;;;;;7.40;3.05;;;3.40;99.90;;;;;;5096873;28;20132;-71
2021/01/26 12:33:24;;;;;;;9.70;3.13;;;3.40;99.90;;;;;;5096782;28;20024;-72
2021/01/26 12:35:54;;;;;;;7.63;3.05;;;3.30;99.90;;;;;;5093752;28;20020;-71
2021/01/26 12:38:25;;;;;;;5.38;2.90;;;3.40;99.90;;;;;;5093155;28;20103;-71
2021/01/26 12:40:50;;;;;;;8.27;3.08;;;3.40;99.90;;;;;;5095688;28;20028;-71
2021/01/26 12:43:18;;;;;;;8.90;3.13;;;3.50;99.90;;;;;;5089318;28;20129;-71
2021/01/26 12:45:45;;;;;;;6.60;2.92;;;3.60;99.90;;;;;;5094469;28;20039;-71
2021/01/26 12:48:11;;;;;;;6.20;3.15;;;3.50;99.90;;;;;;5094096;28;20040;-71
2021/01/26 12:50:41;;;;;;;7.93;3.53;;;3.50;99.90;;;;;;5098487;28;20108;-72
2021/01/26 12:53:09;;;;;;;5.75;2.92;;;3.50;99.90;;;;;;5089253;28;20050;-72
2021/01/26 12:55:34;;;;;;;5.65;3.10;;;3.50;99.90;;;;;;5093267;28;20015;-71
2021/01/26 12:58:00;;;;;;;5.57;2.90;;;3.40;99.90;;;;;;5094312;28;20103;-71
2021/01/26 13:00:29;;;;;;;8.20;3.00;;;3.50;99.90;;;;;;5094398;28;20029;-71
2021/01/26 13:02:55;;;;;;;5.28;2.80;;;3.50;99.90;;;;;;5091855;28;20495;-71
2021/01/26 13:05:23;;;;;;;6.22;2.80;;;3.60;99.90;;;;;;5093346;28;20028;-71
2021/01/26 13:07:51;;;;;;;6.60;2.90;;;3.60;99.90;;;;;;5074620;28;20038;-71
2021/01/26 13:10:20;;;;;;;6.47;2.90;;;3.50;99.90;;;;;;5073005;28;20611;-71
2021/01/26 13:12:48;;;;;;;5.90;2.90;;;3.50;99.90;;;;;;5075195;28;20059;-71
2021/01/26 13:15:16;;;;;;;8.18;3.88;;;3.50;99.90;;;;;;5092200;28;20032;-72
2021/01/26 13:17:41;;;;;;;7.32;3.40;;;3.50;99.90;;;;;;5057407;28;20020;-71
2021/01/26 13:20:13;;;;;;;8.63;3.85;;;3.50;99.90;;;;;;5089855;28;20410;-71
2021/01/26 13:22:39;;;;;;;7.57;3.40;;;3.50;99.90;;;;;;5091700;28;20060;-71